Angelica, Wisconsin
Current Conditions -  °F | °C
As of 6:53 PM on Friday 24 Oct 2014 (Local Time) from KGRB Reporting Station
Haze Haze  
Wind Chill: 10°   Ceiling: 6500
Heat Index: 10°   Visibility: 6mi
Dew Point:   Wind: 6mph
Humidity: 96%   Direction: 170°S
Pressure: 29.9"   Gusts: NA
Location:  44.6594°N, 88.2945°W
Report Text: KGRB 242353Z 17005KT 6SM BR BKN065 BKN080 OVC100 10/09 A2990 RMK AO2 SLP128 T01000094 10122 20100 58005
Loading
Personal Weather Stations






























Interactive Weather Map New forecast layout! Learn more

10-Day Weather Forecast

Advertisements
Track Severe Weather on mobile